Bader, Illinois
Current Conditions -  °F | °C
As of 8:15 AM on Monday 24 Nov 2014 (Local Time) from KIJX Reporting Station
Overcast Overcast  
Wind Chill: 24°   Ceiling: 1500
Heat Index: 36°   Visibility: 10mi
Dew Point: 31°   Wind: 24mph
Humidity: 83%   Direction: 250°WSW
Pressure: 29.49"   Gusts: 29mph
Location:  40.1574°N, 90.35°W
Report Text: KIJX 241415Z AUTO 25021G25KT 10SM OVC015 02/00 A2949 RMK AO2 T00231004
Loading
Personal Weather Stations






























Interactive Weather Map New forecast layout! Learn more

10-Day Weather Forecast

Advertisements
Track Severe Weather on mobile